Pequea, PA

11:12 EDT je la 29an de marto 2017 (GMT -0400)
Pequea, PA | | Change Station

Elev 463 ft 39.92 °N, 76.30 °W | Updated 5 minutes ago

Sennuba
Sennuba
51.9 °F
Sentas kiel 51.9 °F
N
1.0
Vento Varianta Vento from SSOk
Gusts 5.0 mej/h

hodiaŭ
High -- | Low -- °F
--% Ebla precip.
hieraŭ
High -- | Low -- °F
Precip. -- co
Aerpremo 30.15 co
Vidodistanco 10.0 mejloj
Nuboj Sennuba
Rosopunkto 49 °F
Humido 90%
Pluvokvanto 0.00 co
Neĝprofundo Not available.
6:53 AM 7:26 PM
Kreskanta Lunarko, 3% visible
METAR KLNS 291453Z 36015KT 10SM CLR 11/02 A3015 RMK AO2 SLP210 T01060022 53015
Aerpremo 30.15 co
Vidodistanco 10.0 mejloj
Nuboj Sennuba
Rosopunkto 49 °F
Humido 90%
Pluvokvanto 0.00 co
Neĝprofundo Not available.
6:53 AM 7:26 PM
Kreskanta Lunarko, 3% visible
METAR KLNS 291453Z 36015KT 10SM CLR 11/02 A3015 RMK AO2 SLP210 T01060022 53015

Get Severe Weather Alerts

Thanks for signing up!

Be on the lookout for a verification email in your inbox.

You'll start receiving the daily forecast at 8 AM.

×

10-Day Weather Forecast

Almanac

Astronomio

Mar. 29, 2017 Leviĝo Subiro
Aktuala tempo
Civila krepusko
Naŭtika krepusko
Astronomia krepusko
Luno
Daŭro de videbla lumo
Daŭro de tago
Tomorrow will be .
, % of the Moon is Illuminated

Hodiaŭaj ekstremaĵoj

State Highs State Lows

Community

WunderPhotos

Upload Photos

1,962,540 photos uploaded!

WunderBlog® & News

Nearby

Aerkvalito

  Aerkvalito Aerkvalita indico Poluanto
Not available.

Neĝa profundeco

Station Depth Alteco

Earthquake Activity

Urbo Distance Mag. Time & Date
Minimum magnitude displayed is 2.5.

Earthquake Activity

Urbo Distance Mag. Time & Date
Minimum magnitude displayed is 2.5.

Coastal Water Temperatures

Loko Temperaturo

Stations

Najbaraj veter-stacioj

Loko de stacio Temp Venta
kvazaŭtemperaturo
Rosopunkto Humido Vento Precip. Elev Ĝisdatigita je Tipo
                   

Watches & Warnings

There are currently no watches in effect.